Time;durP1;ratioP1;P1;durP2;ratioP2;P2;SDS_P1;SDS_P2;PMS_P1;PMS_P2;Temp;Humidity;BMP_temperature;BMP_pressure;BME280_temperature;BME280_humidity;BME280_pressure;Samples;Min_cycle;Max_cycle;Signal;HPM_P1;HPM_P2
2022/01/06 00:00:28;;;;;;;386.55;278.95;;;;;;;24.64;39.81;101999.88;5005049;28;20065;-43
2022/01/06 00:03:08;;;;;;;389.63;276.13;;;;;;;24.62;40.06;102006.81;5142446;27;20142;-42
2022/01/06 00:05:36;;;;;;;397.27;283.27;;;;;;;24.58;39.74;101995.34;5142621;27;20042;-42
2022/01/06 00:08:05;;;;;;;390.13;279.00;;;;;;;24.61;40.04;102009.38;5142752;27;20416;-42
2022/01/06 00:10:33;;;;;;;391.75;279.45;;;;;;;24.60;39.71;102005.88;5142546;27;20495;-43
2022/01/06 00:13:09;;;;;;;390.33;280.23;;;;;;;24.65;39.87;102003.38;5141950;27;20042;-42
2022/01/06 00:15:54;;;;;;;389.13;282.85;;;;;;;24.55;39.70;101989.13;5141919;27;20031;-42
2022/01/06 00:23:57;;;;;;;388.10;279.25;;;;;;;24.63;39.47;101994.56;5133756;27;20054;-45
2022/01/06 00:26:25;;;;;;;392.42;278.95;;;;;;;24.60;39.61;102005.88;5142239;27;20031;-42
2022/01/06 00:28:54;;;;;;;385.38;277.70;;;;;;;24.58;39.73;102008.44;5141772;27;20084;-43
2022/01/06 00:31:23;;;;;;;397.65;287.00;;;;;;;24.54;40.11;102016.22;5141761;27;20049;-43
2022/01/06 00:33:52;;;;;;;392.95;282.67;;;;;;;24.53;39.90;102009.19;5141974;27;20052;-43
2022/01/06 00:36:20;;;;;;;381.30;278.83;;;;;;;24.57;39.91;102003.19;5123091;27;20023;-47
2022/01/06 00:38:49;;;;;;;383.67;282.70;;;;;;;24.51;39.91;102000.38;5141700;27;20022;-42
2022/01/06 00:41:17;;;;;;;393.58;285.85;;;;;;;24.49;39.87;101999.47;5141357;27;20027;-42
2022/01/06 00:43:46;;;;;;;393.88;282.90;;;;;;;24.50;39.78;101999.50;5141853;27;20034;-42
2022/01/06 00:46:15;;;;;;;395.60;280.83;;;;;;;24.48;39.88;101990.69;5141650;27;20095;-42
2022/01/06 00:48:43;;;;;;;392.63;280.30;;;;;;;24.50;39.46;101991.63;5141543;27;20064;-42
2022/01/06 00:51:12;;;;;;;395.13;287.10;;;;;;;24.48;40.06;101993.31;5141958;27;20701;-42
2022/01/06 00:53:41;;;;;;;384.63;280.35;;;;;;;24.54;39.65;101998.75;5123363;27;20026;-43
2022/01/06 00:56:09;;;;;;;393.65;286.35;;;;;;;24.53;39.80;101996.06;5141214;27;20084;-42
2022/01/06 00:58:38;;;;;;;397.90;285.70;;;;;;;24.47;39.58;101994.16;5141054;27;20075;-42
2022/01/06 01:01:07;;;;;;;401.65;286.98;;;;;;;24.39;40.02;101991.34;5119226;28;20092;-42
2022/01/06 01:03:35;;;;;;;396.73;285.10;;;;;;;24.41;39.89;101997.50;5119346;28;20494;-42
2022/01/06 01:06:03;;;;;;;383.00;279.42;;;;;;;24.45;39.84;101993.22;5120677;27;20027;-45
2022/01/06 01:08:34;;;;;;;395.13;283.92;;;;;;;24.42;39.95;102001.00;5120383;27;20405;-43
2022/01/06 01:11:03;;;;;;;398.65;285.88;;;;;;;24.47;39.88;101988.91;5120176;27;20027;-42
2022/01/06 01:13:32;;;;;;;393.63;283.25;;;;;;;24.39;39.99;101985.22;5112131;27;20066;-43
2022/01/06 01:16:10;;;;;;;388.95;282.63;;;;;;;24.38;39.92;101989.56;5106695;28;20016;-43
2022/01/06 01:18:45;;;;;;;387.10;280.13;;;;;;;24.40;39.70;101993.13;5105725;28;20035;-43
2022/01/06 01:21:14;;;;;;;390.40;286.40;;;;;;;24.41;39.82;101991.38;5105919;28;20065;-43
2022/01/06 01:23:42;;;;;;;390.92;281.80;;;;;;;24.39;39.87;101990.47;5106604;27;20114;-42
2022/01/06 01:26:11;;;;;;;396.83;282.95;;;;;;;24.34;39.60;101992.94;5088956;28;20028;-43
2022/01/06 01:28:50;;;;;;;403.38;287.92;;;;;;;24.36;39.82;101998.25;5104868;28;20034;-42
2022/01/06 01:33:52;;;;;;;393.73;285.08;;;;;;;24.28;39.81;101998.03;5106879;28;20046;-42
2022/01/06 01:36:21;;;;;;;395.67;287.60;;;;;;;24.27;39.75;102002.38;5106334;28;20417;-43
2022/01/06 01:38:50;;;;;;;395.00;282.52;;;;;;;24.31;39.99;101999.84;5106413;28;20982;-43
2022/01/06 01:41:19;;;;;;;394.38;284.95;;;;;;;24.26;39.75;101994.47;5106276;28;20028;-43
2022/01/06 01:43:48;;;;;;;395.13;284.63;;;;;;;24.23;39.92;101995.28;5105870;28;20034;-43
2022/01/06 01:46:19;;;;;;;390.95;282.73;;;;;;;24.22;39.94;101997.84;5105918;28;20084;-43
2022/01/06 01:49:07;;;;;;;394.17;284.25;;;;;;;24.24;39.64;101989.16;5106159;28;20031;-42
2022/01/06 01:51:36;;;;;;;402.65;286.08;;;;;;;24.27;39.56;101996.25;5106188;28;20035;-42
2022/01/06 01:54:04;;;;;;;395.23;288.27;;;;;;;24.17;39.62;101992.47;5106179;28;20028;-42
2022/01/06 01:56:33;;;;;;;395.88;286.27;;;;;;;24.19;39.88;101988.16;5106194;28;20027;-42
2022/01/06 01:59:02;;;;;;;402.17;286.67;;;;;;;24.15;39.60;101990.66;5105815;28;20035;-42
2022/01/06 02:01:30;;;;;;;399.80;283.73;;;;;;;24.11;39.97;101987.94;5113099;27;20107;-43
2022/01/06 02:03:59;;;;;;;392.23;285.20;;;;;;;24.17;39.86;101994.19;5125918;27;20019;-42
2022/01/06 02:06:28;;;;;;;401.80;291.63;;;;;;;24.10;39.66;101999.28;5126087;27;20019;-42
2022/01/06 02:08:56;;;;;;;396.88;286.50;;;;;;;24.14;39.66;101999.38;5126046;27;20035;-45
2022/01/06 02:11:25;;;;;;;411.52;294.95;;;;;;;24.08;39.62;102005.31;5126440;27;20034;-43
2022/01/06 02:13:58;;;;;;;407.30;289.25;;;;;;;24.05;39.91;101997.38;5125994;27;20031;-42
2022/01/06 02:16:28;;;;;;;402.98;287.92;;;;;;;24.07;39.76;101993.06;5125483;27;20042;-42
2022/01/06 02:18:56;;;;;;;402.95;288.10;;;;;;;24.09;39.40;101996.59;5125952;27;20750;-42
2022/01/06 02:21:25;;;;;;;397.33;281.35;;;;;;;24.06;39.98;102000.03;5125730;27;20066;-45
2022/01/06 02:23:55;;;;;;;401.40;292.77;;;;;;;24.06;39.77;102007.03;5126008;27;20019;-42
2022/01/06 02:26:23;;;;;;;394.65;284.52;;;;;;;24.07;39.98;102007.06;5125217;27;20107;-42
2022/01/06 02:28:52;;;;;;;400.92;283.88;;;;;;;24.04;39.91;102006.09;5108073;27;20484;-42
2022/01/06 02:31:21;;;;;;;403.05;290.63;;;;;;;24.03;39.58;102010.41;5126114;27;20058;-44
2022/01/06 02:33:50;;;;;;;396.63;286.52;;;;;;;23.98;39.93;102009.41;5125590;27;20031;-42
2022/01/06 02:36:19;;;;;;;404.35;285.50;;;;;;;24.01;39.79;102004.25;5125625;27;20035;-43
2022/01/06 02:38:48;;;;;;;406.08;289.80;;;;;;;24.02;39.60;102006.00;5125664;27;20031;-42
2022/01/06 02:41:16;;;;;;;395.60;289.80;;;;;;;24.03;39.47;101999.06;5125698;27;20495;-42
2022/01/06 02:43:45;;;;;;;395.17;286.80;;;;;;;23.98;39.54;102001.56;5107381;27;20127;-43
2022/01/06 02:46:13;;;;;;;398.63;288.27;;;;;;;24.03;39.53;101999.06;5125771;27;20411;-43
2022/01/06 02:48:42;;;;;;;396.70;287.23;;;;;;;24.02;39.75;101994.66;5125517;27;20095;-42
2022/01/06 02:51:11;;;;;;;408.33;292.10;;;;;;;24.01;39.44;102001.63;5125406;27;20547;-42
2022/01/06 02:53:39;;;;;;;405.23;290.35;;;;;;;23.98;39.55;102009.41;5125120;27;20112;-43
2022/01/06 02:56:08;;;;;;;401.83;290.65;;;;;;;23.96;39.65;102000.59;5124996;27;20100;-42
2022/01/06 02:58:36;;;;;;;408.52;288.60;;;;;;;23.92;40.00;101999.56;5125573;27;20558;-42
2022/01/06 03:01:05;;;;;;;405.67;292.48;;;;;;;23.94;39.78;102005.75;5107270;27;20495;-42
2022/01/06 03:03:33;;;;;;;403.90;289.67;;;;;;;23.82;40.10;101994.91;5125422;27;20057;-42
2022/01/06 03:06:02;;;;;;;395.08;288.42;;;;;;;23.92;39.79;101996.97;5125271;27;20031;-43
2022/01/06 03:08:32;;;;;;;407.40;293.58;;;;;;;23.87;39.59;102000.28;5124970;27;20365;-42
2022/01/06 03:11:00;;;;;;;395.58;286.42;;;;;;;23.93;39.52;102000.47;5124912;27;20109;-42
2022/01/06 03:13:29;;;;;;;403.48;286.90;;;;;;;23.89;39.83;101994.28;5124668;27;20046;-42
2022/01/06 03:15:57;;;;;;;404.85;292.23;;;;;;;23.89;39.60;101993.38;5106680;27;20058;-43
2022/01/06 03:18:25;;;;;;;401.70;287.50;;;;;;;23.86;39.75;101990.66;5125003;27;20102;-43
2022/01/06 03:20:54;;;;;;;405.40;291.45;;;;;;;23.86;39.93;101982.78;5125040;27;20118;-43
2022/01/06 03:23:23;;;;;;;397.40;292.95;;;;;;;23.80;39.65;101978.25;5125108;27;20034;-43
2022/01/06 03:25:51;;;;;;;404.75;291.38;;;;;;;23.77;39.78;101976.44;5124421;27;20507;-43
2022/01/06 03:28:20;;;;;;;394.73;291.30;;;;;;;23.80;40.06;101970.41;5124663;27;20024;-42
2022/01/06 03:30:48;;;;;;;403.67;287.52;;;;;;;23.79;39.99;101964.28;5124698;27;20064;-42
2022/01/06 03:33:17;;;;;;;407.20;289.10;;;;;;;23.73;39.92;101964.09;5124803;27;20026;-42
2022/01/06 03:35:46;;;;;;;408.08;294.60;;;;;;;23.78;39.53;101974.69;5124666;27;20027;-42
2022/01/06 03:38:15;;;;;;;399.15;287.00;;;;;;;23.75;39.51;101974.59;5124977;27;20113;-42
2022/01/06 03:40:43;;;;;;;406.92;288.65;;;;;;;23.73;40.00;101969.34;5124647;27;20491;-42
2022/01/06 03:43:11;;;;;;;402.25;290.63;;;;;;;23.71;39.98;101965.78;5089050;27;20023;-42
2022/01/06 03:45:40;;;;;;;396.92;287.98;;;;;;;23.77;39.71;101967.69;5123879;27;20436;-43
2022/01/06 03:48:09;;;;;;;402.00;290.52;;;;;;;23.75;39.36;101959.78;5124001;27;20023;-43
2022/01/06 03:50:36;;;;;;;412.55;300.05;;;;;;;23.76;39.49;101955.44;5123776;27;20020;-43
2022/01/06 03:53:04;;;;;;;402.52;291.85;;;;;;;23.74;39.53;101947.53;5124329;27;20519;-42
2022/01/06 03:55:32;;;;;;;399.10;286.88;;;;;;;23.74;39.74;101952.78;5123838;27;20027;-43
2022/01/06 03:58:00;;;;;;;418.48;296.38;;;;;;;23.74;39.64;101950.16;5124043;27;20019;-44
2022/01/06 04:00:28;;;;;;;410.15;293.42;;;;;;;23.69;39.80;101962.22;5124687;28;20091;-44
2022/01/06 04:02:57;;;;;;;402.40;294.13;;;;;;;23.70;39.63;101950.03;5124455;28;20074;-42
2022/01/06 04:05:25;;;;;;;411.75;293.65;;;;;;;23.66;39.61;101941.19;5106026;28;20512;-42
2022/01/06 04:07:55;;;;;;;396.10;289.30;;;;;;;23.66;39.88;101943.81;5124267;28;20062;-44
2022/01/06 04:10:24;;;;;;;413.15;296.75;;;;;;;23.69;39.54;101949.13;5124338;28;20016;-42
2022/01/06 04:12:53;;;;;;;408.63;288.58;;;;;;;23.69;39.60;101967.44;5105796;28;20468;-42
2022/01/06 04:15:25;;;;;;;403.30;293.65;;;;;;;23.61;40.01;101955.88;5123888;28;20034;-42
2022/01/06 04:17:54;;;;;;;403.15;291.38;;;;;;;23.65;39.50;101956.00;5123613;28;20494;-43
2022/01/06 04:20:21;;;;;;;404.98;291.77;;;;;;;23.71;39.77;101957.03;5124181;28;20043;-42
2022/01/06 04:22:50;;;;;;;411.42;296.05;;;;;;;23.64;39.72;101949.00;5123958;28;20370;-42
2022/01/06 04:25:19;;;;;;;404.63;290.50;;;;;;;23.59;39.93;101954.94;5124164;28;20027;-43
2022/01/06 04:27:47;;;;;;;403.63;288.80;;;;;;;23.62;39.60;101957.66;5124326;28;20031;-42
2022/01/06 04:30:16;;;;;;;408.42;295.85;;;;;;;23.55;39.50;101959.19;5124364;28;20031;-43
2022/01/06 04:32:44;;;;;;;406.77;291.67;;;;;;;23.54;39.78;101954.81;5124266;28;20393;-45
2022/01/06 04:35:13;;;;;;;415.30;298.92;;;;;;;23.46;39.74;101967.66;5123724;28;20065;-42
2022/01/06 04:37:41;;;;;;;404.13;289.02;;;;;;;23.50;40.12;101966.00;5124179;28;20126;-43
2022/01/06 04:40:10;;;;;;;420.60;296.15;;;;;;;23.52;39.63;101962.59;5124269;28;20046;-43
2022/01/06 04:42:38;;;;;;;416.55;301.83;;;;;;;23.50;39.53;101966.88;5123869;28;20061;-43
2022/01/06 04:45:07;;;;;;;411.83;294.05;;;;;;;23.45;39.92;101965.88;5123554;28;20035;-45
2022/01/06 04:47:36;;;;;;;405.05;292.63;;;;;;;23.48;39.68;101968.59;5123999;27;20051;-43
2022/01/06 04:50:06;;;;;;;405.33;293.95;;;;;;;23.48;39.89;101970.31;5127970;27;20350;-43
2022/01/06 04:52:34;;;;;;;406.60;292.20;;;;;;;23.56;39.77;101967.94;5109147;27;20027;-42
2022/01/06 04:55:03;;;;;;;405.80;292.67;;;;;;;23.47;39.67;101964.22;5128008;27;20051;-43
2022/01/06 04:57:33;;;;;;;402.75;292.23;;;;;;;23.42;40.12;101963.16;5127854;27;20029;-43
2022/01/06 05:00:01;;;;;;;409.38;290.48;;;;;;;23.43;39.83;101961.41;5127677;27;20070;-42
2022/01/06 05:02:30;;;;;;;413.27;297.40;;;;;;;23.43;39.90;101975.41;5127542;27;20047;-43
2022/01/06 05:04:58;;;;;;;412.38;295.33;;;;;;;23.42;40.12;101964.88;5127611;27;20027;-42
2022/01/06 05:07:27;;;;;;;417.88;297.38;;;;;;;23.48;39.59;101962.47;5127544;27;20023;-43
2022/01/06 05:09:56;;;;;;;409.38;294.73;;;;;;;23.38;40.00;101963.03;5127686;27;20042;-42
2022/01/06 05:12:24;;;;;;;415.55;297.25;;;;;;;23.43;39.74;101962.31;5127570;27;20027;-44
2022/01/06 05:14:53;;;;;;;405.13;295.60;;;;;;;23.37;39.60;101954.25;5126782;27;20039;-43
2022/01/06 05:17:22;;;;;;;408.60;294.42;;;;;;;23.38;39.82;101958.66;5127013;27;20035;-43
2022/01/06 05:19:50;;;;;;;412.23;298.73;;;;;;;23.35;39.85;101967.31;5127652;27;20027;-43
2022/01/06 05:22:18;;;;;;;406.40;298.40;;;;;;;23.31;39.96;101972.41;5108915;27;20034;-46
2022/01/06 05:24:48;;;;;;;414.38;294.23;;;;;;;23.39;39.93;101968.28;5127224;27;20122;-43
2022/01/06 05:27:16;;;;;;;413.10;297.10;;;;;;;23.34;39.67;101967.25;5127287;27;20019;-44
2022/01/06 05:29:45;;;;;;;413.23;297.52;;;;;;;23.29;40.10;101974.09;5126818;27;20396;-42
2022/01/06 05:32:13;;;;;;;407.08;293.88;;;;;;;23.33;39.90;101973.34;5108438;27;20361;-42
2022/01/06 05:34:42;;;;;;;412.48;295.63;;;;;;;23.36;39.68;101976.06;5126950;27;20903;-42
2022/01/06 05:37:11;;;;;;;414.98;298.00;;;;;;;23.28;39.91;101969.69;5126828;27;20024;-43
2022/01/06 05:39:39;;;;;;;404.80;298.05;;;;;;;23.31;39.61;101982.88;5127370;27;20027;-42
2022/01/06 05:42:08;;;;;;;416.70;298.75;;;;;;;23.32;39.75;101976.81;5127217;27;20027;-42
2022/01/06 05:44:37;;;;;;;407.88;297.65;;;;;;;23.31;39.58;101982.88;5127077;27;20023;-44
2022/01/06 05:47:05;;;;;;;416.85;298.38;;;;;;;23.26;39.89;101977.47;5126427;27;20061;-42
2022/01/06 05:49:34;;;;;;;405.15;291.58;;;;;;;23.27;39.64;101976.66;5126855;27;20076;-42
2022/01/06 05:52:03;;;;;;;409.90;291.90;;;;;;;23.26;39.81;101966.13;5126499;27;20038;-42
2022/01/06 05:54:32;;;;;;;408.35;292.20;;;;;;;23.23;39.88;101969.56;5126624;27;20027;-45
2022/01/06 05:57:00;;;;;;;413.50;296.20;;;;;;;23.31;39.60;101967.19;5126898;27;20418;-45
2022/01/06 05:59:31;;;;;;;410.17;291.35;;;;;;;23.21;39.62;101969.50;5126511;27;20412;-43
2022/01/06 06:02:01;;;;;;;404.63;293.17;;;;;;;23.16;39.93;101970.16;5126241;27;20055;-42
2022/01/06 06:04:30;;;;;;;413.02;295.52;;;;;;;23.22;39.67;101965.16;5126675;27;20163;-44
2022/01/06 06:06:58;;;;;;;408.58;292.23;;;;;;;23.23;39.99;101966.03;5126274;27;20050;-43
2022/01/06 06:09:27;;;;;;;422.02;302.30;;;;;;;23.21;39.68;101958.16;5107158;27;20027;-46
2022/01/06 06:11:56;;;;;;;416.02;296.95;;;;;;;23.20;39.84;101964.19;5107653;27;20042;-43
2022/01/06 06:14:24;;;;;;;407.75;297.98;;;;;;;23.20;39.63;101970.31;5126632;27;20378;-42
2022/01/06 06:16:51;;;;;;;408.77;296.08;;;;;;;23.23;39.84;101966.03;5125529;27;20463;-42
2022/01/06 06:19:20;;;;;;;420.58;302.35;;;;;;;23.27;39.40;101970.53;5125467;27;20112;-42
2022/01/06 06:21:49;;;;;;;415.95;301.25;;;;;;;23.19;39.59;101971.13;5125842;27;20180;-42
2022/01/06 06:24:20;;;;;;;415.45;302.40;;;;;;;23.25;39.78;101973.09;5107656;27;20464;-48
2022/01/06 06:26:50;;;;;;;419.25;300.52;;;;;;;23.18;39.60;101971.97;5107704;27;20038;-43
2022/01/06 06:29:19;;;;;;;413.33;302.23;;;;;;;23.23;39.78;101976.50;5125114;27;20023;-48
2022/01/06 06:31:47;;;;;;;406.85;294.15;;;;;;;23.17;39.55;101972.81;5125789;27;20031;-47
2022/01/06 06:34:16;;;;;;;417.45;299.52;;;;;;;23.14;39.78;101979.69;5125382;27;20429;-43
2022/01/06 06:36:44;;;;;;;409.77;297.58;;;;;;;23.19;39.63;101973.75;5125725;27;20031;-42
2022/01/06 06:39:13;;;;;;;401.92;295.60;;;;;;;23.13;39.64;101978.81;5125959;27;20487;-41
2022/01/06 06:41:42;;;;;;;411.52;297.77;;;;;;;23.16;39.55;101984.16;5107829;27;20083;-43
2022/01/06 06:44:10;;;;;;;417.95;299.70;;;;;;;23.13;40.08;101983.13;5125507;27;20080;-42
2022/01/06 06:46:38;;;;;;;412.08;300.67;;;;;;;23.06;40.06;101980.34;5124882;27;20499;-45
2022/01/06 06:49:06;;;;;;;413.20;301.75;;;;;;;23.11;39.77;101977.88;5125396;27;20031;-43
2022/01/06 06:51:34;;;;;;;406.23;298.33;;;;;;;23.13;39.86;101970.03;5125460;27;20475;-42
2022/01/06 06:54:02;;;;;;;406.27;294.27;;;;;;;23.13;39.60;101972.66;5107127;27;20055;-42
2022/01/06 06:56:30;;;;;;;414.75;305.42;;;;;;;23.14;39.98;101972.72;5106861;27;20031;-42
2022/01/06 06:58:59;;;;;;;411.63;298.65;;;;;;;23.16;39.65;101971.06;5125696;27;20048;-43
2022/01/06 07:01:27;;;;;;;420.42;304.17;;;;;;;23.13;39.88;101967.44;5125135;27;20376;-43
2022/01/06 07:03:56;;;;;;;423.77;303.23;;;;;;;23.15;39.99;101964.03;5125377;27;20082;-43
2022/01/06 07:06:24;;;;;;;414.30;304.85;;;;;;;23.15;39.90;101965.75;5125377;27;20023;-45
2022/01/06 07:08:52;;;;;;;413.90;293.30;;;;;;;23.18;39.39;101968.47;5125362;27;20095;-43
2022/01/06 07:11:22;;;;;;;415.63;299.90;;;;;;;23.12;39.80;101961.31;5124523;27;20042;-46
2022/01/06 07:13:51;;;;;;;427.67;302.10;;;;;;;23.15;40.06;101955.28;5125018;27;20045;-43
2022/01/06 07:16:19;;;;;;;422.67;304.23;;;;;;;23.15;39.95;101963.13;5124907;27;20502;-43
2022/01/06 07:18:47;;;;;;;433.30;309.40;;;;;;;23.15;39.67;101958.81;5124860;27;20157;-43
2022/01/06 07:21:16;;;;;;;434.60;311.60;;;;;;;23.14;39.60;101962.25;5125195;27;20031;-43
2022/01/06 07:23:45;;;;;;;417.10;304.35;;;;;;;23.16;39.47;101960.59;5125215;27;20079;-42
2022/01/06 07:26:14;;;;;;;429.20;310.10;;;;;;;23.16;39.93;101952.72;5124816;27;20106;-43
2022/01/06 07:28:42;;;;;;;429.60;306.52;;;;;;;23.15;39.86;101963.13;5125029;27;20030;-46
2022/01/06 07:31:10;;;;;;;418.90;300.70;;;;;;;23.16;39.58;101957.97;5124571;27;20042;-42
2022/01/06 07:33:39;;;;;;;418.42;300.98;;;;;;;23.12;39.73;101957.78;5106405;27;20037;-42
2022/01/06 07:36:08;;;;;;;417.17;299.65;;;;;;;23.18;39.75;101960.63;5124744;27;20023;-43
2022/01/06 07:38:37;;;;;;;422.67;304.10;;;;;;;23.17;39.95;101962.34;5124332;27;20023;-43
2022/01/06 07:41:06;;;;;;;417.10;295.35;;;;;;;23.13;39.76;101956.97;5124615;27;20035;-43
2022/01/06 07:43:34;;;;;;;427.92;304.70;;;;;;;23.14;39.90;101959.66;5125105;27;20031;-46
2022/01/06 07:46:04;;;;;;;427.30;301.58;;;;;;;23.13;39.86;101947.41;5124655;27;20035;-43
2022/01/06 07:48:47;;;;;;;414.98;299.92;;;;;;;23.11;40.08;101962.16;5124800;27;20038;-42
2022/01/06 07:51:16;;;;;;;416.90;298.05;;;;;;;23.16;40.00;101963.22;5124533;27;20043;-43
2022/01/06 07:53:45;;;;;;;423.83;302.48;;;;;;;23.15;39.95;101957.91;5124473;27;20023;-44
2022/01/06 07:56:14;;;;;;;417.60;303.25;;;;;;;23.15;39.81;101956.19;5105637;28;20027;-42
2022/01/06 07:58:42;;;;;;;421.05;301.63;;;;;;;23.15;39.61;101956.19;5124706;27;20027;-42
2022/01/06 08:01:11;;;;;;;421.85;304.50;;;;;;;23.16;39.61;101950.13;5124256;27;20480;-42
2022/01/06 08:03:40;;;;;;;416.17;300.13;;;;;;;23.15;40.07;101953.56;5124391;28;20023;-43
2022/01/06 08:06:10;;;;;;;431.38;299.75;;;;;;;23.18;39.71;101950.16;5124228;28;20300;-42
2022/01/06 08:08:39;;;;;;;414.45;305.75;;;;;;;23.23;39.64;101942.47;5123890;28;20031;-43
2022/01/06 08:11:07;;;;;;;420.67;305.15;;;;;;;23.19;39.74;101944.06;5123674;28;20110;-42
2022/01/06 08:13:36;;;;;;;425.08;304.15;;;;;;;23.18;39.85;101951.03;5124149;28;20491;-42
2022/01/06 08:16:05;;;;;;;423.52;306.27;;;;;;;23.21;39.62;101959.00;5124102;28;20030;-42
2022/01/06 08:18:34;;;;;;;430.75;313.20;;;;;;;23.23;40.00;101945.09;5124662;28;20031;-42
2022/01/06 08:21:02;;;;;;;429.50;307.70;;;;;;;23.17;39.92;101935.28;5123854;28;20023;-42
2022/01/06 08:23:31;;;;;;;430.60;312.42;;;;;;;23.16;39.75;101931.78;5125458;27;20041;-43
2022/01/06 08:26:00;;;;;;;421.85;304.88;;;;;;;23.22;39.79;101931.13;5128298;27;20157;-43
2022/01/06 08:28:28;;;;;;;427.42;310.50;;;;;;;23.19;39.88;101928.38;5128259;27;20027;-43
2022/01/06 08:30:56;;;;;;;425.02;312.63;;;;;;;23.19;39.76;101925.75;5128509;27;20452;-42
2022/01/06 08:33:25;;;;;;;434.08;311.17;;;;;;;23.24;39.82;101923.31;5128294;27;20039;-43
2022/01/06 08:35:54;;;;;;;426.55;305.13;;;;;;;23.21;39.63;101914.50;5127464;27;20039;-42
2022/01/06 08:38:22;;;;;;;435.90;311.50;;;;;;;23.18;40.01;101918.75;5127776;27;20019;-42
2022/01/06 08:40:51;;;;;;;427.55;306.00;;;;;;;23.13;40.00;101921.22;5127746;27;20384;-43
2022/01/06 08:43:20;;;;;;;415.63;303.75;;;;;;;23.15;40.02;101926.50;5127714;27;20034;-43
2022/01/06 08:45:48;;;;;;;421.15;302.35;;;;;;;23.16;40.13;101921.31;5127989;27;20475;-43
2022/01/06 08:48:17;;;;;;;421.88;301.50;;;;;;;23.20;39.77;101928.44;5127201;27;20055;-43
2022/01/06 08:50:45;;;;;;;423.25;304.00;;;;;;;23.18;40.07;101921.34;5127594;27;20191;-43
2022/01/06 08:53:14;;;;;;;415.80;301.17;;;;;;;23.16;39.86;101921.31;5126975;27;20035;-43
2022/01/06 08:55:46;;;;;;;417.60;296.92;;;;;;;23.15;40.07;101914.31;5127045;27;20540;-49
2022/01/06 08:58:15;;;;;;;429.63;305.25;;;;;;;23.16;39.86;101915.19;5127839;27;20039;-43
2022/01/06 09:00:44;;;;;;;436.27;305.95;;;;;;;23.20;39.80;101922.31;5127521;27;20024;-43
2022/01/06 09:03:13;;;;;;;428.13;306.80;;;;;;;23.23;40.10;101922.44;5106970;28;20043;-44
2022/01/06 09:05:41;;;;;;;427.25;309.20;;;;;;;23.18;40.27;101926.59;5106962;28;20239;-43
2022/01/06 09:08:10;;;;;;;427.50;307.98;;;;;;;23.20;39.99;101924.91;5107111;28;20040;-44
2022/01/06 09:10:38;;;;;;;435.48;313.35;;;;;;;23.24;39.99;101923.31;5107265;28;20024;-43
2022/01/06 09:13:08;;;;;;;430.13;309.67;;;;;;;23.28;39.91;101927.81;5071899;28;20111;-46
2022/01/06 09:15:37;;;;;;;425.63;309.73;;;;;;;23.29;40.13;101927.84;5106661;28;20032;-43
2022/01/06 09:18:07;;;;;;;430.90;310.20;;;;;;;23.32;39.89;101924.44;5105523;28;20035;-43
2022/01/06 09:20:35;;;;;;;426.88;314.30;;;;;;;23.35;39.46;101932.38;5106814;27;20140;-44
2022/01/06 09:23:03;;;;;;;431.67;311.95;;;;;;;23.34;39.56;101928.88;5106638;28;20035;-44
2022/01/06 09:25:32;;;;;;;424.30;307.67;;;;;;;23.33;39.99;101931.47;5106650;28;20030;-43
2022/01/06 09:28:00;;;;;;;428.33;306.33;;;;;;;23.41;39.80;101932.56;5106669;28;20028;-43
2022/01/06 09:30:28;;;;;;;429.38;307.05;;;;;;;23.39;39.44;101934.25;5107000;28;20030;-43
2022/01/06 09:32:57;;;;;;;416.23;302.17;;;;;;;23.36;39.99;101942.00;5106705;27;20039;-44
2022/01/06 09:35:25;;;;;;;421.58;308.45;;;;;;;23.39;39.93;101930.75;5105516;28;20032;-43
2022/01/06 09:37:54;;;;;;;423.95;306.00;;;;;;;23.40;39.73;101933.41;5106591;28;20032;-43
2022/01/06 09:40:22;;;;;;;440.10;309.13;;;;;;;23.39;39.65;101933.38;5106588;28;20084;-43
2022/01/06 09:42:50;;;;;;;415.30;298.20;;;;;;;23.41;39.41;101934.31;5104975;28;20043;-44
2022/01/06 09:45:19;;;;;;;419.73;305.17;;;;;;;23.36;39.93;101937.69;5106085;28;20168;-43
2022/01/06 09:47:48;;;;;;;423.35;304.67;;;;;;;23.39;39.57;101929.03;5087834;28;20035;-46
2022/01/06 09:50:16;;;;;;;412.15;304.13;;;;;;;23.39;39.51;101942.13;5104962;28;20074;-43
2022/01/06 09:52:44;;;;;;;429.23;307.52;;;;;;;23.38;39.74;101940.34;5106268;28;20027;-48
2022/01/06 09:55:12;;;;;;;412.52;300.30;;;;;;;23.40;39.46;101938.66;5106248;28;20031;-43
2022/01/06 09:58:02;;;;;;;421.10;308.10;;;;;;;23.38;39.93;101937.72;5105756;28;20458;-44
2022/01/06 10:00:31;;;;;;;430.75;311.27;;;;;;;23.41;39.84;101937.81;5106119;28;20185;-43
2022/01/06 10:03:02;;;;;;;417.70;298.10;;;;;;;23.40;39.32;101936.03;5104627;28;20051;-43
2022/01/06 10:05:44;;;;;;;407.25;300.85;;;;;;;23.39;39.65;101939.50;5106070;28;20031;-45
2022/01/06 10:08:14;;;;;;;407.17;295.35;;;;;;;23.35;39.83;101948.09;5106258;28;20023;-45
2022/01/06 10:10:42;;;;;;;416.95;301.98;;;;;;;23.41;39.56;101945.66;5104334;28;20400;-43
2022/01/06 10:13:16;;;;;;;422.17;304.38;;;;;;;23.40;39.78;101943.03;5104431;28;20129;-43
2022/01/06 10:15:46;;;;;;;417.23;301.52;;;;;;;23.38;39.92;101942.94;5105879;28;20030;-43
2022/01/06 10:18:15;;;;;;;418.23;300.83;;;;;;;23.30;39.71;101932.25;5104598;28;20024;-43
2022/01/06 10:20:45;;;;;;;413.48;306.83;;;;;;;23.36;39.59;101944.63;5104287;28;20032;-44
2022/01/06 10:23:16;;;;;;;423.08;302.70;;;;;;;23.33;39.59;101937.56;5105091;28;20032;-49
2022/01/06 10:25:49;;;;;;;425.50;307.20;;;;;;;23.37;39.80;101941.16;5106158;28;20050;-44
2022/01/06 10:28:19;;;;;;;417.92;306.25;;;;;;;23.36;39.74;101942.91;5105724;28;20116;-42
2022/01/06 10:30:49;;;;;;;420.05;303.75;;;;;;;23.39;39.97;101934.25;5104109;28;20027;-44
2022/01/06 10:33:21;;;;;;;417.10;302.67;;;;;;;23.34;40.00;101936.75;5105184;28;20031;-43
2022/01/06 10:35:50;;;;;;;415.85;302.83;;;;;;;23.39;39.82;101942.13;5104834;28;20499;-44
2022/01/06 10:38:29;;;;;;;404.35;296.17;;;;;;;23.31;39.70;101941.88;5104128;28;20031;-43
2022/01/06 10:41:16;;;;;;;414.27;301.42;;;;;;;23.36;39.89;101934.16;5103847;28;20032;-45
2022/01/06 10:43:56;;;;;;;417.17;302.60;;;;;;;23.32;39.96;101929.69;5105236;27;20099;-43
2022/01/06 10:46:44;;;;;;;419.63;300.52;;;;;;;23.36;39.87;101926.31;5104613;28;20031;-43
2022/01/06 10:49:15;;;;;;;410.95;300.63;;;;;;;23.38;40.04;101922.00;5104218;28;20032;-45
2022/01/06 10:51:46;;;;;;;415.02;296.52;;;;;;;23.36;40.04;101915.81;5105358;28;20138;-43
2022/01/06 10:54:23;;;;;;;416.33;301.50;;;;;;;23.38;39.87;101911.53;5105094;28;20028;-43
2022/01/06 10:57:12;;;;;;;429.38;305.52;;;;;;;23.40;39.66;101909.84;5104103;28;20076;-43
2022/01/06 10:59:40;;;;;;;413.40;298.77;;;;;;;23.40;39.61;101907.22;5105102;28;20088;-43
2022/01/06 11:02:09;;;;;;;409.55;296.88;;;;;;;23.36;39.80;101906.25;5116759;27;20051;-43
2022/01/06 11:04:37;;;;;;;413.55;295.15;;;;;;;23.40;40.10;101895.88;5125206;27;20023;-49
2022/01/06 11:07:06;;;;;;;417.52;305.13;;;;;;;23.40;39.86;101906.34;5107063;27;20031;-43
2022/01/06 11:09:37;;;;;;;420.90;298.83;;;;;;;23.36;39.84;101901.03;5124886;27;20031;-43
2022/01/06 11:12:26;;;;;;;421.77;294.90;;;;;;;23.40;39.79;101890.66;5124571;27;20054;-43